BLB weather

Leo Airport
Guaymas, Sonora, Mexico

Public forecast

Using degrees Celsius for public forecast. Weather courtesy of forecast.io.

Closest aviation weather report (METAR) to Leo Airport

Closest report is General José María Yáñez International Airport, 6.1 nm (11.4 km) E. Retrieved 2020/03/31 14:14 UTC (0 seconds ago):

MMGM 311414Z RTD 00000KT 10SM BKN170 19/09 A2989 RMK 8/020 HZY RTS

Closest aviation forecast (TAF) to Leo Airport

Forecast is more than 6 hours old.

Closest forecast is General José María Yáñez International Airport, 6.1 nm (11.4 km) E. Retrieved 2020/03/31 06:55 UTC (7 hours ago):

TAF MMGM 310452Z 3106/0106 00000KT P6SM BKN150 BECMG 3118/3119 28010KT FM010000 32005KT P6SM OVC180